createdAt,value
2022-12-08T00:01:10.039Z,99416.28
2022-12-08T00:03:45.345Z,99410.13
2022-12-08T00:06:43.354Z,99411.03
2022-12-08T00:09:25.365Z,99418.94
2022-12-08T00:12:00.709Z,99418.94
2022-12-08T00:14:39.217Z,99422.44
2022-12-08T00:17:15.723Z,99418.06
2022-12-08T00:19:50.579Z,99427.66
2022-12-08T00:22:24.024Z,99427.59
2022-12-08T00:24:57.698Z,99417.03
2022-12-08T00:27:31.201Z,99422.22
2022-12-08T00:30:05.641Z,99430.13
2022-12-08T00:32:39.097Z,99436.38
2022-12-08T00:35:14.024Z,99438.22
2022-12-08T00:37:50.486Z,99442.81
2022-12-08T00:40:26.212Z,99447.28
2022-12-08T00:42:59.628Z,99450.94
2022-12-08T00:45:33.045Z,99447.47
2022-12-08T00:48:09.309Z,99454.56
2022-12-08T00:50:44.209Z,99458.22
2022-12-08T00:53:17.728Z,99475.84
2022-12-08T00:55:51.139Z,99466.25
2022-12-08T00:58:24.577Z,99468.94
2022-12-08T01:00:58.091Z,99464.66
2022-12-08T01:03:31.607Z,99462.97
2022-12-08T01:06:09.150Z,99469.16
2022-12-08T01:08:43.260Z,99473.63
2022-12-08T01:11:19.766Z,99469.28
2022-12-08T01:13:53.224Z,99479.00
2022-12-08T01:16:28.813Z,99478.19
2022-12-08T01:19:02.704Z,99480.88
2022-12-08T01:21:37.555Z,99482.72
2022-12-08T01:24:13.432Z,99493.28
2022-12-08T01:26:47.583Z,99485.47
2022-12-08T01:29:21.313Z,99482.00
2022-12-08T01:31:54.925Z,99485.53
2022-12-08T01:34:28.389Z,99488.19
2022-12-08T01:37:03.346Z,99485.63
2022-12-08T01:39:36.879Z,99497.94
2022-12-08T01:42:21.242Z,99490.94
2022-12-08T01:45:01.279Z,99496.25
2022-12-08T01:47:39.509Z,99491.94
2022-12-08T01:50:15.289Z,99498.94
2022-12-08T01:52:54.514Z,99498.94
2022-12-08T01:55:34.253Z,99499.88
2022-12-08T01:58:12.920Z,99505.13
2022-12-08T02:00:46.756Z,99495.47
2022-12-08T02:03:25.531Z,99497.22
2022-12-08T02:05:59.948Z,99502.50
2022-12-08T02:08:36.216Z,99510.38
2022-12-08T02:11:12.115Z,99499.88
2022-12-08T02:13:47.567Z,99502.50
2022-12-08T02:16:36.692Z,99498.91
2022-12-08T02:19:48.527Z,99502.38
2022-12-08T02:22:29.557Z,99500.75
2022-12-08T02:25:13.751Z,99501.59
2022-12-08T02:28:00.141Z,99505.13
2022-12-08T02:30:45.301Z,99496.41
2022-12-08T02:33:56.969Z,99491.13
2022-12-08T02:36:38.717Z,99494.75
2022-12-08T02:39:24.703Z,99500.00
2022-12-08T02:42:08.252Z,99508.78
2022-12-08T02:44:49.042Z,99504.44
2022-12-08T02:47:25.116Z,99512.34
2022-12-08T02:50:00.721Z,99505.34
2022-12-08T02:52:45.037Z,99507.97
2022-12-08T02:55:24.834Z,99503.63
2022-12-08T02:58:14.539Z,99508.03
2022-12-08T03:01:02.459Z,99506.25
2022-12-08T03:03:42.983Z,99513.25
2022-12-08T03:06:29.898Z,99514.06
2022-12-08T03:09:11.391Z,99507.91
2022-12-08T03:11:51.933Z,99513.13
2022-12-08T03:14:26.307Z,99511.31
2022-12-08T03:17:01.978Z,99519.16
2022-12-08T03:19:39.186Z,99512.97
2022-12-08T03:22:17.155Z,99519.91
2022-12-08T03:24:51.492Z,99519.88
2022-12-08T03:27:29.407Z,99520.75
2022-12-08T03:30:03.975Z,99528.63
2022-12-08T03:32:47.847Z,99532.97
2022-12-08T03:35:26.106Z,99533.78
2022-12-08T03:38:06.101Z,99531.13
2022-12-08T03:40:40.263Z,99529.41
2022-12-08T03:43:13.705Z,99531.13
2022-12-08T03:45:47.273Z,99528.47
2022-12-08T03:48:20.727Z,99535.44
2022-12-08T03:50:54.284Z,99537.16
2022-12-08T03:53:29.567Z,99531.03
2022-12-08T03:56:05.695Z,99530.16
2022-12-08T03:58:39.189Z,99537.16
2022-12-08T04:01:13.031Z,99544.16
2022-12-08T04:03:46.585Z,99544.16
2022-12-08T04:06:20.595Z,99540.66
2022-12-08T04:08:55.246Z,99547.44
2022-12-08T04:11:28.939Z,99549.38
2022-12-08T04:14:02.489Z,99545.88
2022-12-08T04:16:36.191Z,99538.88
2022-12-08T04:19:10.200Z,99543.25
2022-12-08T04:21:43.652Z,99547.63
2022-12-08T04:24:18.716Z,99556.41
2022-12-08T04:26:52.231Z,99567.78
2022-12-08T04:29:25.866Z,99572.16
2022-12-08T04:31:59.430Z,99569.53
2022-12-08T04:34:33.086Z,99565.97
2022-12-08T04:37:06.635Z,99559.88
2022-12-08T04:39:41.673Z,99563.41
2022-12-08T04:42:15.120Z,99556.41
2022-12-08T04:44:48.521Z,99558.16
2022-12-08T04:47:22.421Z,99559.00
2022-12-08T04:49:55.903Z,99560.78
2022-12-08T04:52:29.378Z,99566.03
2022-12-08T04:55:04.906Z,99558.19
2022-12-08T04:57:38.803Z,99558.19
2022-12-08T05:00:13.790Z,99548.53
2022-12-08T05:02:47.314Z,99541.50
2022-12-08T05:05:20.866Z,99543.28
2022-12-08T05:07:54.421Z,99552.06
2022-12-08T05:10:29.371Z,99561.75
2022-12-08T05:13:03.088Z,99567.94
2022-12-08T05:15:36.639Z,99568.91
2022-12-08T05:18:10.219Z,99574.22
2022-12-08T05:20:43.637Z,99570.78
2022-12-08T05:23:17.087Z,99574.34
2022-12-08T05:25:51.893Z,99566.56
2022-12-08T05:28:42.730Z,99576.25
2022-12-08T05:31:18.501Z,99587.69
2022-12-08T05:33:53.209Z,99580.75
2022-12-08T05:36:26.786Z,99586.03
2022-12-08T05:39:00.511Z,99585.19
2022-12-08T05:41:35.595Z,99591.34
2022-12-08T05:44:09.283Z,99587.84
2022-12-08T05:46:42.894Z,99586.09
2022-12-08T05:49:16.533Z,99586.97
2022-12-08T05:51:50.194Z,99579.09
2022-12-08T05:54:24.143Z,99580.84
2022-12-08T05:56:58.704Z,99580.69
2022-12-08T05:59:32.347Z,99583.50
2022-12-08T06:02:05.963Z,99576.53
2022-12-08T06:04:39.488Z,99585.28
2022-12-08T06:07:16.031Z,99591.44
2022-12-08T06:09:49.833Z,99597.59
2022-12-08T06:12:24.898Z,99598.50
2022-12-08T06:14:58.361Z,99599.41
2022-12-08T06:17:32.027Z,99606.41
2022-12-08T06:20:07.105Z,99608.19
2022-12-08T06:22:40.856Z,99610.84
2022-12-08T06:25:14.650Z,99604.72
2022-12-08T06:27:49.606Z,99610.00
2022-12-08T06:30:23.198Z,99615.25
2022-12-08T06:32:56.909Z,99616.16
2022-12-08T06:35:30.500Z,99620.53
2022-12-08T06:38:03.961Z,99624.09
2022-12-08T06:40:37.552Z,99625.84
2022-12-08T06:43:12.430Z,99628.53
2022-12-08T06:45:46.018Z,99633.81
2022-12-08T06:48:20.510Z,99626.81
2022-12-08T06:50:54.041Z,99630.34
2022-12-08T06:53:27.509Z,99632.09
2022-12-08T06:56:01.180Z,99631.25
2022-12-08T06:58:36.962Z,99640.00
2022-12-08T07:01:12.548Z,99632.16
2022-12-08T07:03:46.474Z,99638.25
2022-12-08T07:06:23.098Z,99642.63
2022-12-08T07:08:56.658Z,99638.25
2022-12-08T07:11:30.410Z,99640.84
2022-12-08T07:14:05.334Z,99642.59
2022-12-08T07:16:39.620Z,99639.97
2022-12-08T07:19:13.193Z,99632.06
2022-12-08T07:21:46.827Z,99640.78
2022-12-08T07:24:22.799Z,99635.53
2022-12-08T07:26:56.303Z,99634.66
2022-12-08T07:29:31.313Z,99630.28
2022-12-08T07:32:04.895Z,99639.88
2022-12-08T07:34:38.420Z,99640.69
2022-12-08T07:37:12.149Z,99639.78
2022-12-08T07:39:45.724Z,99634.53
2022-12-08T07:42:19.260Z,99636.19
2022-12-08T07:44:55.004Z,99636.16
2022-12-08T07:47:28.569Z,99637.88
2022-12-08T07:50:02.373Z,99643.91
2022-12-08T07:52:35.689Z,99646.31
2022-12-08T07:55:10.099Z,99649.88
2022-12-08T07:57:43.615Z,99647.16
2022-12-08T08:00:19.443Z,99656.66
2022-12-08T08:02:53.017Z,99651.91
2022-12-08T08:05:26.649Z,99642.44
2022-12-08T08:08:00.306Z,99655.47
2022-12-08T08:10:33.923Z,99648.38
2022-12-08T08:13:07.410Z,99648.25
2022-12-08T08:15:42.469Z,99641.34
2022-12-08T08:18:16.103Z,99644.38
2022-12-08T08:20:49.649Z,99647.72
2022-12-08T08:23:23.094Z,99652.88
2022-12-08T08:25:56.965Z,99642.22
2022-12-08T08:28:30.411Z,99645.50
2022-12-08T08:31:05.632Z,99642.41
2022-12-08T08:33:39.145Z,99639.00
2022-12-08T08:36:12.872Z,99645.25
2022-12-08T08:38:46.291Z,99647.06
2022-12-08T08:41:19.766Z,99644.34
2022-12-08T08:43:53.221Z,99655.66
2022-12-08T08:46:28.180Z,99659.41
2022-12-08T08:49:02.254Z,99666.78
2022-12-08T08:51:35.345Z,99662.44
2022-12-08T08:54:08.795Z,99663.16
2022-12-08T08:56:42.337Z,99668.03
2022-12-08T08:59:15.862Z,99667.47
2022-12-08T09:01:50.961Z,99675.78
2022-12-08T09:04:25.781Z,99665.56
2022-12-08T09:06:59.624Z,99671.03
2022-12-08T09:09:33.141Z,99665.81
2022-12-08T09:12:07.545Z,99666.81
2022-12-08T09:14:41.229Z,99657.25
2022-12-08T09:17:16.275Z,99659.00
2022-12-08T09:19:49.957Z,99655.41
2022-12-08T09:22:23.869Z,99653.59
2022-12-08T09:24:57.129Z,99651.59
2022-12-08T09:27:30.679Z,99643.94
2022-12-08T09:30:04.901Z,99639.44
2022-12-08T09:32:40.179Z,99637.41
2022-12-08T09:35:13.775Z,99634.44
2022-12-08T09:37:47.485Z,99627.91
2022-12-08T09:40:24.028Z,99617.31
2022-12-08T09:43:06.470Z,99614.06
2022-12-08T09:45:40.599Z,99610.50
2022-12-08T09:48:20.281Z,99599.44
2022-12-08T09:50:56.547Z,99612.25
2022-12-08T09:53:36.068Z,99603.16
2022-12-08T09:56:16.355Z,99600.41
2022-12-08T09:58:54.691Z,99600.47
2022-12-08T10:01:30.392Z,99600.31
2022-12-08T10:04:07.619Z,99599.34
2022-12-08T10:06:48.428Z,99596.28
2022-12-08T10:09:30.632Z,99597.69
2022-12-08T10:12:13.808Z,99589.13
2022-12-08T10:14:54.702Z,99586.59
2022-12-08T10:17:34.568Z,99578.63
2022-12-08T10:20:17.154Z,99582.19
2022-12-08T10:22:57.383Z,99581.56
2022-12-08T10:25:37.733Z,99572.03
2022-12-08T10:28:11.758Z,99570.25
2022-12-08T10:30:45.204Z,99569.13
2022-12-08T10:33:20.885Z,99573.69
2022-12-08T10:35:58.555Z,99569.53
2022-12-08T10:38:34.268Z,99561.16
2022-12-08T10:41:13.779Z,99561.09
2022-12-08T10:43:49.557Z,99556.56
2022-12-08T10:46:25.971Z,99552.72
2022-12-08T10:49:13.764Z,99559.81
2022-12-08T10:51:48.630Z,99554.41
2022-12-08T10:54:30.350Z,99557.38
2022-12-08T10:57:03.775Z,99552.34
2022-12-08T10:59:37.257Z,99556.72
2022-12-08T11:02:19.716Z,99556.53
2022-12-08T11:05:00.589Z,99551.03
2022-12-08T11:07:35.484Z,99556.94
2022-12-08T11:10:20.281Z,99555.53
2022-12-08T11:12:53.767Z,99548.94
2022-12-08T11:15:27.421Z,99540.50
2022-12-08T11:18:08.012Z,99543.47
2022-12-08T11:20:42.961Z,99540.44
2022-12-08T11:23:25.487Z,99539.84
2022-12-08T11:26:06.375Z,99544.44
2022-12-08T11:28:40.489Z,99543.63
2022-12-08T11:31:23.708Z,99555.00
2022-12-08T11:33:57.919Z,99552.28
2022-12-08T11:36:34.891Z,99549.47
2022-12-08T11:39:14.027Z,99536.94
2022-12-08T11:41:47.952Z,99534.19
2022-12-08T11:44:30.304Z,99528.03
2022-12-08T11:47:10.018Z,99529.00
2022-12-08T11:52:25.531Z,99521.22
2022-12-08T11:55:07.339Z,99513.28
2022-12-08T11:57:40.869Z,99519.44
2022-12-08T12:00:17.727Z,99515.91
2022-12-08T12:02:58.003Z,99515.91
2022-12-08T12:06:08.815Z,99519.59
2022-12-08T12:08:46.738Z,99512.53
2022-12-08T12:11:45.796Z,99520.50
2022-12-08T12:14:41.797Z,99517.00
2022-12-08T12:17:33.912Z,99516.34
2022-12-08T12:20:16.012Z,99518.38
2022-12-08T12:22:53.287Z,99505.25
2022-12-08T12:25:28.610Z,99508.75
2022-12-08T12:28:06.956Z,99509.56
2022-12-08T12:30:55.249Z,99502.44
2022-12-08T12:33:31.402Z,99502.53
2022-12-08T12:36:08.324Z,99507.81
2022-12-08T12:39:04.372Z,99496.44
2022-12-08T12:41:44.863Z,99487.66
2022-12-08T12:44:40.325Z,99494.47
2022-12-08T12:47:16.546Z,99489.16
2022-12-08T12:50:37.229Z,99483.50
2022-12-08T12:53:43.869Z,99477.84
2022-12-08T12:56:50.367Z,99483.50
2022-12-08T12:59:42.675Z,99482.94
2022-12-08T13:02:26.201Z,99485.19
2022-12-08T13:05:03.664Z,99475.28
2022-12-08T13:07:43.856Z,99466.22
2022-12-08T13:10:21.572Z,99471.16
2022-12-08T13:13:17.677Z,99471.50
2022-12-08T13:15:54.627Z,99468.75
2022-12-08T13:18:36.509Z,99466.09
2022-12-08T13:21:15.238Z,99458.22
2022-12-08T13:23:50.537Z,99455.78
2022-12-08T13:26:25.890Z,99461.31
2022-12-08T13:29:23.865Z,99459.63
2022-12-08T13:31:59.322Z,99464.44
2022-12-08T13:34:39.403Z,99462.94
2022-12-08T13:37:26.649Z,99458.66
2022-12-08T13:40:03.931Z,99466.88
2022-12-08T13:42:45.054Z,99465.31
2022-12-08T13:48:44.619Z,99465.78
2022-12-08T13:57:26.268Z,99468.19
2022-12-08T14:00:03.053Z,99462.25
2022-12-08T14:02:48.872Z,99472.16
2022-12-08T14:05:47.733Z,99468.81
2022-12-08T14:08:57.456Z,99466.38
2022-12-08T14:11:34.759Z,99466.56
2022-12-08T14:14:10.962Z,99470.22
2022-12-08T14:16:49.800Z,99462.44
2022-12-08T14:19:25.712Z,99468.69
2022-12-08T14:22:02.519Z,99473.19
2022-12-08T14:24:36.239Z,99481.16
2022-12-08T14:27:13.421Z,99482.13
2022-12-08T14:29:48.829Z,99482.19
2022-12-08T14:32:28.801Z,99483.09
2022-12-08T14:35:12.622Z,99476.09
2022-12-08T14:37:49.691Z,99478.72
2022-12-08T14:40:26.077Z,99469.97
2022-12-08T14:43:16.406Z,99471.72
2022-12-08T14:45:55.649Z,99479.00
2022-12-08T14:48:42.294Z,99483.50
2022-12-08T14:51:23.886Z,99485.38
2022-12-08T14:54:01.387Z,99482.88
2022-12-08T14:56:38.671Z,99478.63
2022-12-08T14:59:15.922Z,99473.44
2022-12-08T15:01:51.204Z,99474.38
2022-12-08T15:04:27.628Z,99486.75
2022-12-08T15:07:06.270Z,99485.03
2022-12-08T15:09:43.657Z,99485.94
2022-12-08T15:12:27.129Z,99480.72
2022-12-08T15:15:15.226Z,99480.72
2022-12-08T15:17:52.480Z,99481.53
2022-12-08T15:20:35.583Z,99484.97
2022-12-08T15:23:29.823Z,99476.91
2022-12-08T15:26:06.578Z,99479.56
2022-12-08T15:28:40.176Z,99474.22
2022-12-08T15:31:13.856Z,99475.97
2022-12-08T15:33:47.723Z,99480.31
2022-12-08T15:36:21.174Z,99483.84
2022-12-08T15:38:54.786Z,99478.56
2022-12-08T15:41:29.682Z,99484.72
2022-12-08T15:44:03.239Z,99479.44
2022-12-08T15:46:38.121Z,99488.31
2022-12-08T15:49:18.406Z,99484.78
2022-12-08T15:51:57.404Z,99484.88
2022-12-08T15:54:38.488Z,99480.59
2022-12-08T16:00:51.929Z,99481.44
2022-12-08T16:04:14.292Z,99484.22
2022-12-08T16:09:20.887Z,99484.88
2022-12-08T16:12:12.037Z,99489.25
2022-12-08T16:15:48.480Z,99481.34
2022-12-08T16:17:41.285Z,99481.25
2022-12-08T16:20:17.129Z,99475.97
2022-12-08T16:22:59.239Z,99478.63
2022-12-08T16:26:16.320Z,99473.28
2022-12-08T16:31:30.002Z,99480.19
2022-12-08T16:34:03.837Z,99483.72
2022-12-08T16:36:37.314Z,99479.25
2022-12-08T16:39:13.914Z,99484.47
2022-12-08T16:42:04.868Z,99478.28
2022-12-08T16:44:42.302Z,99478.28
2022-12-08T16:47:17.242Z,99477.47
2022-12-08T16:49:50.648Z,99480.09
2022-12-08T16:52:24.329Z,99480.97
2022-12-08T16:55:00.111Z,99477.41
2022-12-08T16:57:33.547Z,99480.06
2022-12-08T17:00:09.615Z,99477.41
2022-12-08T17:02:45.333Z,99474.78
2022-12-08T17:05:21.369Z,99474.78
2022-12-08T17:07:55.569Z,99472.91
2022-12-08T17:10:31.763Z,99479.91
2022-12-08T17:13:05.466Z,99479.91
2022-12-08T17:15:41.189Z,99474.59
2022-12-08T17:18:16.189Z,99478.03
2022-12-08T17:20:49.659Z,99479.72
2022-12-08T17:23:23.142Z,99478.88
2022-12-08T17:26:01.182Z,99485.00
2022-12-08T17:28:58.858Z,99484.16
2022-12-08T17:31:30.227Z,99480.53
2022-12-08T17:34:09.728Z,99484.91
2022-12-08T17:36:43.371Z,99481.38
2022-12-08T17:39:18.914Z,99484.88
2022-12-08T17:41:55.902Z,99484.88
2022-12-08T17:44:29.580Z,99483.09
2022-12-08T17:47:04.010Z,99485.72
2022-12-08T17:49:42.077Z,99481.38
2022-12-08T17:52:21.497Z,99489.25
2022-12-08T17:54:55.100Z,99482.22
2022-12-08T17:57:28.563Z,99490.19
2022-12-08T18:00:02.020Z,99491.06
2022-12-08T18:02:45.340Z,99495.53
2022-12-08T18:05:21.102Z,99498.22
2022-12-08T18:07:54.762Z,99484.25
2022-12-08T18:10:28.547Z,99489.66
2022-12-08T18:13:05.678Z,99484.53
2022-12-08T18:15:39.516Z,99481.22
2022-12-08T18:18:13.023Z,99476.09
2022-12-08T18:20:48.048Z,99480.75
2022-12-08T18:23:21.488Z,99480.13
2022-12-08T18:25:54.966Z,99478.50
2022-12-08T18:28:28.424Z,99475.16
2022-12-08T18:31:02.159Z,99483.19
2022-12-08T18:33:35.675Z,99469.28
2022-12-08T18:36:13.033Z,99471.22
2022-12-08T18:38:46.568Z,99473.16
2022-12-08T18:41:23.531Z,99468.03
2022-12-08T18:43:58.280Z,99469.94
2022-12-08T18:46:31.916Z,99475.38
2022-12-08T18:49:05.470Z,99472.03
2022-12-08T18:51:40.498Z,99466.06
2022-12-08T18:54:14.476Z,99471.44
2022-12-08T18:56:47.646Z,99466.00
2022-12-08T18:59:22.988Z,99471.69
2022-12-08T19:01:57.341Z,99475.41
2022-12-08T19:04:34.683Z,99471.97
2022-12-08T19:07:12.544Z,99469.47
2022-12-08T19:09:46.013Z,99471.28
2022-12-08T19:12:19.505Z,99478.41
2022-12-08T19:14:52.986Z,99479.41
2022-12-08T19:17:26.965Z,99480.38
2022-12-08T19:20:00.118Z,99478.41
2022-12-08T19:22:35.025Z,99479.63
2022-12-08T19:25:09.280Z,99473.63
2022-12-08T19:27:42.726Z,99475.41
2022-12-08T19:30:16.943Z,99471.13
2022-12-08T19:32:51.610Z,99477.38
2022-12-08T19:35:25.281Z,99468.69
2022-12-08T19:38:00.317Z,99462.63
2022-12-08T19:40:51.234Z,99467.94
2022-12-08T19:43:47.601Z,99464.53
2022-12-08T19:46:21.145Z,99456.69
2022-12-08T19:48:55.696Z,99464.63
2022-12-08T19:51:29.331Z,99462.09
2022-12-08T19:54:06.872Z,99463.88
2022-12-08T19:56:40.378Z,99464.84
2022-12-08T19:59:15.887Z,99466.66
2022-12-08T20:01:49.731Z,99458.81
2022-12-08T20:04:24.185Z,99463.25
2022-12-08T20:06:58.911Z,99460.66
2022-12-08T20:09:33.900Z,99465.06
2022-12-08T20:12:08.359Z,99479.13
2022-12-08T20:14:45.891Z,99466.91
2022-12-08T20:17:19.709Z,99466.97
2022-12-08T20:19:53.417Z,99475.78
2022-12-08T20:22:26.907Z,99474.94
2022-12-08T20:25:04.804Z,99477.63
2022-12-08T20:27:38.293Z,99468.88
2022-12-08T20:30:16.991Z,99479.38
2022-12-08T20:32:50.743Z,99471.59
2022-12-08T20:35:24.595Z,99472.47
2022-12-08T20:38:00.982Z,99469.84
2022-12-08T20:40:35.989Z,99483.03
2022-12-08T20:43:11.531Z,99480.44
2022-12-08T20:45:45.037Z,99477.81
2022-12-08T20:48:19.097Z,99484.88
2022-12-08T20:50:52.904Z,99480.50
2022-12-08T20:53:26.478Z,99483.13
2022-12-08T20:56:01.933Z,99479.66
2022-12-08T20:58:37.363Z,99478.75
2022-12-08T21:01:14.964Z,99468.25
2022-12-08T21:03:50.513Z,99473.53
2022-12-08T21:06:27.019Z,99472.69
2022-12-08T21:09:01.567Z,99470.03
2022-12-08T21:11:37.165Z,99468.31
2022-12-08T21:14:10.837Z,99473.56
2022-12-08T21:16:45.931Z,99475.34
2022-12-08T21:19:20.834Z,99477.16
2022-12-08T21:21:54.456Z,99474.53
2022-12-08T21:24:34.233Z,99477.19
2022-12-08T21:27:10.171Z,99487.72
2022-12-08T21:29:44.905Z,99478.06
2022-12-08T21:32:18.422Z,99481.63
2022-12-08T21:34:52.087Z,99474.59
2022-12-08T21:37:28.723Z,99485.13
2022-12-08T21:40:02.205Z,99472.91
2022-12-08T21:42:46.829Z,99480.81
2022-12-08T21:45:21.972Z,99467.69
2022-12-08T21:47:55.857Z,99473.84
2022-12-08T21:50:29.713Z,99467.69
2022-12-08T21:53:03.489Z,99471.25
2022-12-08T21:55:39.788Z,99472.13
2022-12-08T21:58:14.801Z,99480.03
2022-12-08T22:00:48.526Z,99467.75
2022-12-08T22:03:22.199Z,99473.06
2022-12-08T22:05:55.854Z,99465.81
2022-12-08T22:08:29.707Z,99473.97
2022-12-08T22:11:04.542Z,99467.00
2022-12-08T22:13:40.968Z,99455.66
2022-12-08T22:16:15.513Z,99461.78
2022-12-08T22:18:49.362Z,99456.56
2022-12-08T22:21:23.091Z,99454.59
2022-12-08T22:24:02.996Z,99458.41
2022-12-08T22:26:36.834Z,99453.22
2022-12-08T22:29:12.171Z,99463.75
2022-12-08T22:31:46.249Z,99456.78
2022-12-08T22:34:19.579Z,99462.72
2022-12-08T22:36:56.100Z,99461.16
2022-12-08T22:39:34.332Z,99462.13
2022-12-08T22:42:10.172Z,99461.25
2022-12-08T22:44:45.322Z,99461.28
2022-12-08T22:47:21.815Z,99469.19
2022-12-08T22:49:55.524Z,99467.47
2022-12-08T22:52:29.373Z,99478.03
2022-12-08T22:55:02.872Z,99473.41
2022-12-08T22:57:36.524Z,99479.78
2022-12-08T23:00:20.655Z,99474.50
2022-12-08T23:03:48.860Z,99482.38
2022-12-08T23:06:25.438Z,99479.91
2022-12-08T23:09:00.942Z,99474.72
2022-12-08T23:11:36.280Z,99487.88
2022-12-08T23:14:10.074Z,99480.03
2022-12-08T23:16:45.583Z,99485.28
2022-12-08T23:19:20.971Z,99480.94
2022-12-08T23:21:54.600Z,99480.09
2022-12-08T23:24:28.347Z,99476.59
2022-12-08T23:27:02.322Z,99481.84
2022-12-08T23:29:35.638Z,99481.66
2022-12-08T23:32:11.719Z,99473.13
2022-12-08T23:34:47.014Z,99470.53
2022-12-08T23:37:21.922Z,99470.59
2022-12-08T23:40:11.013Z,99473.19
2022-12-08T23:42:46.885Z,99470.63
2022-12-08T23:45:20.763Z,99478.50
2022-12-08T23:47:56.007Z,99476.81
2022-12-08T23:50:35.203Z,99474.16
2022-12-08T23:53:21.732Z,99468.00
2022-12-08T23:56:00.787Z,99472.38
2022-12-08T23:58:35.591Z,99467.97
